Superior, WY

10:16 PM MDT on July 28, 2014 (GMT -0600)
Rock Springs-Sweetwater (KRKS) Elev 6759 ft | 41.59 °N, 109.05 °W | Change Station
Active Advisory: Special Statement

Current weather conditions updated 22 minutes ago

Clear
Clear
72 °F
Feels Like 72 °F
N
8
Wind Variable Wind from West

Tomorrow is forecast to be Much Cooler than today. Thunderstorms.

Today
High -- | Low -- °F
--% Chance of Precip.
Yesterday
High -- | Low -- °F
Precip. -- in
6:06 AM 8:38 PM
Waxing Crescent, 4% visible
Pressure 30.04 in
Visibility 10.0 miles
Clouds Clear
Dew Point 44 °F
Humidity 37%
Rainfall 0.00 in
Snow Depth Not available.
UV 0 out of 12
Pollen 6.80 out of 12
Air Quality Not available.
Flu Activity Not available.
METAR KRKS 290354Z AUTO 28007KT 10SM CLR 22/07 A3033 RMK AO2 SLP173 T02220067

More Conditions Fewer Conditions

Pressure 30.04 in
Visibility 10.0 miles
Clouds Clear
Dew Point 44 °F
Humidity 37%
Rainfall 0.00 in
Snow Depth Not available.
UV 0 out of 12
Pollen 6.80 out of 12
Air Quality Not available.
Flu Activity Not available.
METAR KRKS 290354Z AUTO 28007KT 10SM CLR 22/07 A3033 RMK AO2 SLP173 T02220067

More Conditions Fewer Conditions

10-Day Weather Forecast

Almanac

Astronomy

Jul. 28, 2014 Rise Set
Actual Time 6:06 AM MDT 8:38 PM MDT
Civil Twilight 5:34 AM MDT 9:09 PM MDT
Nautical Twilight 4:54 AM MDT 9:49 PM MDT
Astronomical Twilight 4:09 AM MDT 10:33 PM MDT
Moon 7:52 AM MDT (7/28) 9:18 PM MDT (7/28)
Length of Visible Light 15h 35m
Length of Day
14h 31m
Tomorrow will be 2m 0s shorter.
Waxing Crescent, 4% of the Moon is Illuminated
Jul 29
Waxing Crescent
Aug 3
First Quarter
Aug 10
Full
Aug 17
Last Quarter
Aug 25
New

Today's Extremes

State Highs State Lows

Community

WunderPhotos

Upload Photos

1,738,626 photos uploaded!

Nearby

Snow Depth

Station Depth Elevation
Big Sandy Opening 0 in 9080 ft
Hams Fork 0 in 7840 ft
Sandstone R.S. 14 in 8150 ft
Salt River Summit 0 in 7600 ft
Loomis Park 0 in 8240 ft

Earthquake Activity

City Distance Mag. Time & Date
No recent earthquake activity has been reported nearby.
Minimum magnitude displayed is 2.5.

Coastal Water Temperatures

Place Temperature
No Stations Reporting

Nearby Weather Stations

Station Location Temp. Heat Index Dew Point Humidity Wind Precip. Elev Updated Type
MesoWest HALLV1 , Point Of Rocks, WY 73 °F 71 °F - - North  at  - 0.00 in / hr 6567 ft 9:00 PM MDT MADIS
Fairway Estates, Rock Springs, WY 71.8 °F 77 °F 46 °F 40% NW  at  9.0 mph 0.00 in / hr 6430 ft 10:12 PM MDT Normal
MesoWest KANDAW , Rock Springs, WY 73 °F 71 °F - - North  at  - 0.00 in / hr 6211 ft 9:00 PM MDT MADIS
RAWS SNOW SPRINGS CREEK WY, Rock Springs, WY 68 °F - 47 °F 47% WSW  at  14 mph 0.00 in / hr 7549 ft 9:44 PM MDT MADIS

Show More Stations Show Fewer Stations